createdAt,value
2019-05-14T00:01:42.988Z,6.29
2019-05-14T00:04:11.498Z,6.25
2019-05-14T00:06:38.762Z,6.23
2019-05-14T00:09:05.854Z,6.18
2019-05-14T00:11:32.931Z,6.14
2019-05-14T00:14:01.291Z,6.09
2019-05-14T00:16:28.489Z,6.06
2019-05-14T00:18:55.551Z,6.01
2019-05-14T00:21:22.652Z,5.98
2019-05-14T00:23:51.417Z,5.94
2019-05-14T00:26:18.590Z,5.92
2019-05-14T00:28:45.694Z,5.89
2019-05-14T00:31:12.728Z,5.89
2019-05-14T00:33:41.767Z,5.87
2019-05-14T00:36:11.114Z,5.82
2019-05-14T00:38:37.751Z,5.78
2019-05-14T00:41:04.817Z,5.73
2019-05-14T00:43:32.510Z,5.68
2019-05-14T00:46:01.689Z,5.65
2019-05-14T00:48:28.646Z,5.61
2019-05-14T00:50:55.808Z,5.58
2019-05-14T00:53:22.854Z,5.59
2019-05-14T00:55:51.605Z,5.63
2019-05-14T00:58:18.902Z,5.63
2019-05-14T01:00:45.967Z,5.61
2019-05-14T01:03:13.043Z,5.57
2019-05-14T01:05:41.345Z,5.56
2019-05-14T01:08:08.579Z,5.53
2019-05-14T01:10:35.661Z,5.53
2019-05-14T01:13:02.744Z,5.51
2019-05-14T01:15:32.055Z,5.50
2019-05-14T01:17:59.089Z,5.47
2019-05-14T01:20:26.585Z,5.38
2019-05-14T01:22:53.635Z,5.32
2019-05-14T01:25:27.172Z,5.28
2019-05-14T01:27:54.236Z,5.24
2019-05-14T01:30:21.494Z,5.22
2019-05-14T01:32:48.581Z,5.22
2019-05-14T01:35:15.639Z,5.23
2019-05-14T01:37:42.699Z,5.25
2019-05-14T01:40:11.398Z,5.26
2019-05-14T01:42:41.340Z,5.27
2019-05-14T01:45:21.105Z,5.28
2019-05-14T01:47:36.714Z,5.27
2019-05-14T01:50:04.025Z,5.26
2019-05-14T01:52:31.818Z,5.25
2019-05-14T01:54:58.982Z,5.25
2019-05-14T01:57:26.036Z,5.28
2019-05-14T01:59:53.091Z,5.27
2019-05-14T02:02:22.096Z,5.29
2019-05-14T02:04:51.323Z,5.27
2019-05-14T02:07:18.097Z,5.23
2019-05-14T02:09:45.142Z,5.21
2019-05-14T02:12:12.231Z,5.20
2019-05-14T02:14:39.291Z,5.21
2019-05-14T02:17:08.250Z,5.20
2019-05-14T02:19:35.294Z,5.19
2019-05-14T02:22:02.350Z,5.19
2019-05-14T02:24:29.402Z,5.16
2019-05-14T02:26:56.449Z,5.16
2019-05-14T02:29:23.470Z,5.18
2019-05-14T02:31:50.837Z,5.18
2019-05-14T02:34:19.828Z,5.15
2019-05-14T02:36:49.613Z,5.09
2019-05-14T02:39:15.844Z,5.01
2019-05-14T02:41:42.894Z,4.97
2019-05-14T02:44:10.239Z,4.95
2019-05-14T02:46:40.452Z,4.88
2019-05-14T02:49:06.292Z,4.86
2019-05-14T02:51:33.345Z,4.81
2019-05-14T02:54:00.378Z,4.80
2019-05-14T02:56:29.502Z,4.75
2019-05-14T02:58:59.760Z,4.72
2019-05-14T03:01:25.398Z,4.69
2019-05-14T03:03:52.434Z,4.67
2019-05-14T03:06:20.291Z,4.63
2019-05-14T03:08:49.399Z,4.61
2019-05-14T03:11:19.819Z,4.60
2019-05-14T03:13:45.428Z,4.60
2019-05-14T03:16:29.054Z,4.60
2019-05-14T03:18:41.466Z,4.60
2019-05-14T03:21:09.371Z,4.58
2019-05-14T03:23:39.264Z,4.54
2019-05-14T03:26:05.547Z,4.45
2019-05-14T03:28:32.614Z,4.38
2019-05-14T03:31:02.927Z,4.32
2019-05-14T03:33:32.984Z,4.27
2019-05-14T03:36:06.319Z,4.22
2019-05-14T03:38:29.476Z,4.17
2019-05-14T03:40:59.805Z,4.13
2019-05-14T03:43:25.372Z,4.08
2019-05-14T03:45:52.451Z,4.05
2019-05-14T03:48:19.629Z,4.05
2019-05-14T03:50:49.627Z,4.04
2019-05-14T03:53:18.673Z,4.01
2019-05-14T03:55:44.690Z,3.98
2019-05-14T03:58:11.794Z,3.97
2019-05-14T04:00:51.512Z,3.95
2019-05-14T04:03:19.798Z,3.95
2019-05-14T04:05:49.485Z,3.95
2019-05-14T04:08:20.981Z,3.96
2019-05-14T04:10:53.504Z,3.94
2019-05-14T04:13:19.825Z,3.94
2019-05-14T04:15:49.772Z,3.99
2019-05-14T04:18:18.587Z,4.02
2019-05-14T04:20:45.726Z,4.04
2019-05-14T04:23:14.663Z,4.07
2019-05-14T04:25:41.730Z,4.09
2019-05-14T04:28:12.888Z,4.11
2019-05-14T04:30:42.640Z,4.16
2019-05-14T04:33:10.726Z,4.22
2019-05-14T04:35:40.093Z,4.23
2019-05-14T04:38:09.620Z,4.68
2019-05-14T04:40:35.954Z,5.51
2019-05-14T04:43:03.043Z,6.38
2019-05-14T04:45:31.569Z,6.98
2019-05-14T04:48:00.137Z,7.27
2019-05-14T04:50:29.654Z,7.57
2019-05-14T04:52:59.614Z,7.77
2019-05-14T04:55:29.692Z,8.04
2019-05-14T04:57:58.921Z,8.21
2019-05-14T05:00:24.748Z,8.32
2019-05-14T05:02:51.832Z,8.44
2019-05-14T05:05:19.770Z,8.48
2019-05-14T05:07:49.223Z,8.62
2019-05-14T05:10:19.050Z,8.79
2019-05-14T05:12:45.075Z,8.69
2019-05-14T05:15:12.142Z,8.59
2019-05-14T05:17:47.675Z,8.35
2019-05-14T05:20:09.862Z,8.03
2019-05-14T05:22:39.360Z,7.85
2019-05-14T05:25:08.322Z,7.64
2019-05-14T05:27:35.175Z,7.71
2019-05-14T05:30:02.280Z,7.97
2019-05-14T05:32:29.303Z,8.31
2019-05-14T05:34:58.587Z,8.38
2019-05-14T05:37:25.356Z,8.11
2019-05-14T05:39:52.423Z,7.72
2019-05-14T05:42:19.474Z,7.45
2019-05-14T05:44:48.373Z,7.28
2019-05-14T05:47:18.037Z,7.29
2019-05-14T05:49:44.691Z,7.27
2019-05-14T05:52:11.777Z,7.19
2019-05-14T05:54:38.854Z,7.22
2019-05-14T05:57:05.966Z,7.22
2019-05-14T05:59:33.043Z,7.13
2019-05-14T06:02:00.114Z,7.19
2019-05-14T06:04:28.992Z,7.25
2019-05-14T06:06:58.519Z,7.30
2019-05-14T06:09:25.167Z,7.33
2019-05-14T06:11:52.224Z,7.33
2019-05-14T06:14:19.323Z,7.32
2019-05-14T06:16:48.662Z,7.34
2019-05-14T06:19:15.392Z,7.45
2019-05-14T06:21:42.474Z,7.54
2019-05-14T06:24:09.585Z,7.85
2019-05-14T06:26:38.432Z,8.00
2019-05-14T06:29:08.178Z,8.17
2019-05-14T06:31:34.561Z,8.20
2019-05-14T06:34:01.651Z,8.23
2019-05-14T06:36:29.223Z,8.30
2019-05-14T06:38:58.586Z,8.31
2019-05-14T06:41:28.194Z,8.31
2019-05-14T06:43:54.414Z,8.38
2019-05-14T06:46:21.526Z,8.53
2019-05-14T06:48:48.892Z,8.65
2019-05-14T06:51:16.118Z,8.71
2019-05-14T06:53:43.178Z,8.72
2019-05-14T06:56:10.306Z,8.70
2019-05-14T06:58:39.025Z,8.67
2019-05-14T07:01:06.250Z,8.66
2019-05-14T07:03:33.353Z,8.70
2019-05-14T07:06:00.415Z,8.72
2019-05-14T07:08:28.503Z,8.70
2019-05-14T07:10:55.845Z,8.73
2019-05-14T07:13:22.925Z,8.80
2019-05-14T07:15:50.025Z,8.87
2019-05-14T07:18:19.057Z,8.94
2019-05-14T07:20:48.103Z,8.99
2019-05-14T07:23:15.103Z,8.99
2019-05-14T07:25:42.264Z,8.98
2019-05-14T07:28:09.322Z,8.96
2019-05-14T07:30:39.360Z,8.94
2019-05-14T07:33:05.378Z,8.96
2019-05-14T07:35:32.488Z,9.03
2019-05-14T07:37:59.578Z,9.12
2019-05-14T07:40:29.035Z,9.18
2019-05-14T07:42:58.202Z,9.14
2019-05-14T07:45:25.098Z,9.19
2019-05-14T07:47:52.154Z,9.34
2019-05-14T07:50:19.713Z,9.47
2019-05-14T07:52:49.548Z,9.62
2019-05-14T07:55:18.346Z,9.81
2019-05-14T07:57:44.799Z,9.97
2019-05-14T08:00:11.995Z,10.17
2019-05-14T08:02:39.047Z,10.38
2019-05-14T08:05:08.607Z,10.73
2019-05-14T08:07:35.383Z,11.08
2019-05-14T08:10:02.484Z,11.30
2019-05-14T08:12:29.537Z,11.28
2019-05-14T08:15:13.772Z,11.21
2019-05-14T08:17:27.983Z,11.03
2019-05-14T08:19:54.596Z,11.00
2019-05-14T08:22:21.688Z,10.96
2019-05-14T08:24:49.114Z,11.12
2019-05-14T08:27:16.236Z,11.43
2019-05-14T08:29:43.300Z,11.81
2019-05-14T08:32:10.382Z,12.07
2019-05-14T08:34:38.999Z,12.02
2019-05-14T08:37:08.297Z,12.04
2019-05-14T08:39:35.498Z,11.95
2019-05-14T08:42:04.330Z,11.96
2019-05-14T08:44:31.571Z,12.02
2019-05-14T08:46:59.146Z,11.98
2019-05-14T08:49:38.947Z,11.72
2019-05-14T08:51:55.430Z,11.63
2019-05-14T08:54:22.809Z,11.63
2019-05-14T08:56:49.874Z,11.40
2019-05-14T08:59:19.403Z,11.16
2019-05-14T09:01:58.519Z,11.00
2019-05-14T09:04:14.927Z,10.89
2019-05-14T09:06:41.970Z,10.79
2019-05-14T09:09:09.451Z,10.57
2019-05-14T09:11:44.066Z,10.14
2019-05-14T09:14:10.371Z,9.82
2019-05-14T09:16:45.967Z,9.55
2019-05-14T09:19:03.857Z,9.42
2019-05-14T09:21:30.899Z,9.35
2019-05-14T09:23:58.772Z,9.26
2019-05-14T09:26:25.930Z,9.25
2019-05-14T09:28:54.903Z,9.44
2019-05-14T09:31:21.951Z,9.75
2019-05-14T09:33:49.586Z,9.66
2019-05-14T09:36:20.424Z,9.77
2019-05-14T09:38:45.935Z,9.93
2019-05-14T09:41:15.396Z,9.97
2019-05-14T09:43:41.955Z,9.97
2019-05-14T09:46:09.225Z,9.94
2019-05-14T09:48:38.050Z,9.93
2019-05-14T09:51:05.348Z,10.06
2019-05-14T09:53:32.394Z,10.25
2019-05-14T09:55:59.460Z,10.38
2019-05-14T09:58:28.259Z,10.51
2019-05-14T10:00:55.478Z,10.72
2019-05-14T10:03:22.528Z,10.88
2019-05-14T10:05:50.189Z,10.98
2019-05-14T10:08:19.334Z,11.06
2019-05-14T10:10:48.849Z,11.17
2019-05-14T10:13:15.766Z,11.38
2019-05-14T10:15:42.813Z,11.91
2019-05-14T10:18:11.781Z,12.63
2019-05-14T10:20:45.375Z,13.49
2019-05-14T10:23:09.248Z,14.20
2019-05-14T10:25:40.285Z,14.76
2019-05-14T10:28:05.490Z,15.34
2019-05-14T10:30:32.579Z,15.69
2019-05-14T10:33:09.127Z,15.72
2019-05-14T10:35:28.698Z,15.55
2019-05-14T10:37:55.725Z,15.09
2019-05-14T10:40:24.640Z,14.33
2019-05-14T10:42:51.671Z,13.70
2019-05-14T10:45:18.934Z,12.87
2019-05-14T10:47:45.970Z,12.42
2019-05-14T10:50:14.127Z,12.16
2019-05-14T10:52:41.293Z,11.90
2019-05-14T10:55:08.446Z,11.42
2019-05-14T10:57:35.531Z,11.13
2019-05-14T11:00:02.715Z,10.93
2019-05-14T11:02:29.762Z,10.64
2019-05-14T11:04:58.667Z,10.69
2019-05-14T11:07:25.797Z,10.77
2019-05-14T11:09:52.897Z,10.93
2019-05-14T11:12:19.918Z,11.14
2019-05-14T11:14:49.208Z,11.37
2019-05-14T11:17:15.969Z,11.65
2019-05-14T11:19:43.045Z,12.01
2019-05-14T11:22:10.155Z,12.38
2019-05-14T11:24:38.623Z,13.06
2019-05-14T11:27:06.044Z,13.95
2019-05-14T11:29:33.166Z,14.14
2019-05-14T11:32:00.231Z,14.85
2019-05-14T11:34:28.751Z,15.70
2019-05-14T11:36:58.717Z,15.92
2019-05-14T11:39:25.385Z,16.24
2019-05-14T11:41:52.481Z,15.27
2019-05-14T11:44:19.556Z,14.66
2019-05-14T11:46:57.308Z,14.04
2019-05-14T11:49:15.667Z,13.47
2019-05-14T11:54:11.849Z,12.26
2019-05-14T11:56:41.848Z,11.96
2019-05-14T11:59:08.575Z,11.70
2019-05-14T12:01:39.038Z,11.58
2019-05-14T12:04:04.946Z,11.58
2019-05-14T12:06:32.061Z,11.77
2019-05-14T12:08:59.201Z,12.51
2019-05-14T12:11:28.913Z,12.51
2019-05-14T12:13:55.359Z,13.02
2019-05-14T12:16:22.677Z,13.43
2019-05-14T12:18:49.754Z,13.43
2019-05-14T12:21:16.861Z,14.56
2019-05-14T12:23:43.954Z,15.69
2019-05-14T12:26:11.060Z,16.63
2019-05-14T12:28:38.812Z,17.58
2019-05-14T12:31:06.043Z,18.28
2019-05-14T12:33:33.173Z,18.89
2019-05-14T12:36:00.762Z,19.29
2019-05-14T12:38:29.664Z,19.50
2019-05-14T12:40:58.539Z,19.60
2019-05-14T12:43:28.084Z,20.27
2019-05-14T12:45:54.872Z,21.02
2019-05-14T12:48:21.960Z,21.34
2019-05-14T12:50:49.161Z,21.05
2019-05-14T12:53:16.236Z,20.14
2019-05-14T12:55:43.361Z,18.03
2019-05-14T12:58:10.428Z,16.31
2019-05-14T13:00:39.395Z,15.10
2019-05-14T13:03:08.906Z,14.61
2019-05-14T13:05:35.506Z,15.13
2019-05-14T13:08:02.607Z,15.99
2019-05-14T13:10:29.938Z,16.69
2019-05-14T13:12:58.847Z,17.11
2019-05-14T13:15:28.503Z,16.68
2019-05-14T13:17:55.064Z,15.43
2019-05-14T13:20:22.127Z,14.92
2019-05-14T13:22:50.384Z,15.16
2019-05-14T13:25:18.850Z,16.09
2019-05-14T13:27:46.780Z,17.40
2019-05-14T13:30:14.377Z,18.72
2019-05-14T13:32:41.607Z,19.15
2019-05-14T13:35:13.262Z,18.06
2019-05-14T13:37:39.825Z,17.24
2019-05-14T13:40:09.211Z,16.40
2019-05-14T13:42:39.353Z,15.06
2019-05-14T13:45:05.775Z,14.07
2019-05-14T13:47:32.873Z,13.65
2019-05-14T13:50:00.035Z,13.43
2019-05-14T13:52:29.279Z,13.55
2019-05-14T13:54:56.097Z,13.71
2019-05-14T13:57:23.199Z,13.82
2019-05-14T13:59:50.320Z,14.18
2019-05-14T14:02:18.921Z,15.51
2019-05-14T14:04:48.200Z,16.03
2019-05-14T14:07:15.193Z,16.26
2019-05-14T14:09:42.311Z,16.01
2019-05-14T14:12:09.379Z,17.07
2019-05-14T14:14:38.656Z,18.08
2019-05-14T14:17:05.466Z,18.07
2019-05-14T14:19:33.008Z,17.36
2019-05-14T14:22:00.086Z,16.43
2019-05-14T14:24:29.034Z,15.12
2019-05-14T14:26:58.335Z,14.12
2019-05-14T14:29:25.222Z,13.43
2019-05-14T14:31:52.310Z,12.68
2019-05-14T14:34:19.405Z,12.44
2019-05-14T14:36:49.699Z,12.32
2019-05-14T14:39:15.483Z,12.45
2019-05-14T14:41:42.578Z,12.51
2019-05-14T14:44:09.715Z,12.56
2019-05-14T14:46:39.028Z,12.43
2019-05-14T14:49:05.935Z,12.24
2019-05-14T14:51:33.193Z,12.10
2019-05-14T14:54:10.180Z,13.67
2019-05-14T14:56:29.311Z,13.67
2019-05-14T14:58:56.429Z,14.65
2019-05-14T15:01:31.886Z,15.15
2019-05-14T15:04:00.071Z,15.49
2019-05-14T15:06:35.022Z,16.41
2019-05-14T15:09:04.091Z,17.31
2019-05-14T15:11:31.340Z,17.74
2019-05-14T15:13:58.817Z,17.42
2019-05-14T15:16:39.160Z,16.77
2019-05-14T15:19:19.318Z,16.27
2019-05-14T15:21:58.995Z,15.58
2019-05-14T15:24:32.130Z,14.89
2019-05-14T15:27:08.003Z,14.37
2019-05-14T15:29:34.343Z,14.03
2019-05-14T15:32:01.474Z,13.62
2019-05-14T15:34:29.746Z,13.01
2019-05-14T15:37:03.589Z,12.44
2019-05-14T15:39:43.733Z,9.79
2019-05-14T15:42:24.004Z,9.79
2019-05-14T15:44:55.808Z,8.92
2019-05-14T15:47:30.113Z,7.63
2019-05-14T15:49:59.504Z,7.30
2019-05-14T15:52:33.092Z,7.01
2019-05-14T15:55:00.182Z,6.93
2019-05-14T15:57:28.869Z,6.93
2019-05-14T16:00:29.153Z,6.91
2019-05-14T16:03:03.667Z,6.91
2019-05-14T16:05:30.789Z,6.92
2019-05-14T16:07:59.384Z,6.99
2019-05-14T16:10:33.937Z,7.10
2019-05-14T16:13:01.082Z,7.20
2019-05-14T16:15:28.205Z,7.39
2019-05-14T16:18:07.038Z,7.64
2019-05-14T16:20:30.395Z,7.84
2019-05-14T16:22:58.991Z,8.02
2019-05-14T16:25:38.060Z,8.42
2019-05-14T16:28:12.795Z,9.19
2019-05-14T16:30:39.996Z,10.00
2019-05-14T16:33:09.214Z,10.62
2019-05-14T16:35:42.990Z,10.55
2019-05-14T16:38:29.792Z,10.12
2019-05-14T16:40:59.625Z,9.84
2019-05-14T16:43:32.803Z,9.67
2019-05-14T16:46:09.602Z,9.39
2019-05-14T16:48:42.943Z,9.35
2019-05-14T16:51:10.119Z,9.41
2019-05-14T16:53:37.990Z,9.99
2019-05-14T16:56:12.886Z,10.15
2019-05-14T16:58:40.048Z,9.96
2019-05-14T17:01:09.692Z,9.59
2019-05-14T17:03:48.967Z,9.20
2019-05-14T17:06:25.136Z,8.74
2019-05-14T17:08:52.328Z,8.43
2019-05-14T17:11:19.523Z,8.36
2019-05-14T17:13:48.898Z,8.32
2019-05-14T17:16:22.046Z,8.30
2019-05-14T17:18:49.380Z,8.25
2019-05-14T17:21:18.272Z,8.40
2019-05-14T17:23:51.657Z,8.68
2019-05-14T17:26:18.864Z,8.87
2019-05-14T17:28:48.645Z,8.85
2019-05-14T17:31:34.654Z,8.69
2019-05-14T17:34:01.881Z,8.55
2019-05-14T17:36:29.091Z,8.48
2019-05-14T17:38:58.597Z,8.40
2019-05-14T17:41:32.268Z,8.33
2019-05-14T17:43:59.391Z,8.31
2019-05-14T17:46:28.842Z,8.22
2019-05-14T17:49:02.304Z,7.97
2019-05-14T17:51:29.434Z,7.37
2019-05-14T17:53:58.539Z,7.03
2019-05-14T17:56:31.569Z,6.87
2019-05-14T17:58:58.681Z,6.80
2019-05-14T18:01:25.771Z,6.73
2019-05-14T18:03:52.935Z,6.65
2019-05-14T18:06:20.599Z,6.53
2019-05-14T18:08:47.721Z,6.57
2019-05-14T18:11:14.838Z,6.49
2019-05-14T18:13:42.173Z,6.50
2019-05-14T18:16:09.357Z,6.48
2019-05-14T18:18:36.508Z,6.49
2019-05-14T18:21:03.623Z,6.44
2019-05-14T18:23:30.755Z,6.38
2019-05-14T18:26:07.149Z,6.28
2019-05-14T18:28:33.533Z,6.17
2019-05-14T18:31:01.185Z,6.11
2019-05-14T18:33:31.090Z,6.09
2019-05-14T18:36:03.713Z,6.11
2019-05-14T18:38:30.810Z,6.14
2019-05-14T18:40:58.610Z,6.16
2019-05-14T18:43:33.515Z,6.22
2019-05-14T18:46:00.652Z,6.30
2019-05-14T18:48:28.950Z,6.36
2019-05-14T18:51:03.334Z,6.38
2019-05-14T18:53:30.476Z,6.32
2019-05-14T18:55:59.665Z,6.22
2019-05-14T18:58:33.066Z,6.14
2019-05-14T19:01:00.225Z,6.05
2019-05-14T19:03:28.517Z,5.92
2019-05-14T19:06:02.882Z,5.83
2019-05-14T19:08:30.021Z,5.74
2019-05-14T19:10:59.290Z,5.69
2019-05-14T19:13:32.978Z,5.65
2019-05-14T19:16:00.243Z,5.64
2019-05-14T19:18:28.636Z,5.62
2019-05-14T19:21:02.855Z,5.63
2019-05-14T19:23:29.990Z,5.65
2019-05-14T19:25:59.130Z,5.67
2019-05-14T19:28:32.700Z,5.66
2019-05-14T19:30:59.813Z,5.66
2019-05-14T19:33:28.688Z,5.65
2019-05-14T19:36:02.055Z,5.63
2019-05-14T19:38:29.150Z,5.64
2019-05-14T19:40:56.277Z,5.66
2019-05-14T19:43:23.442Z,5.65
2019-05-14T19:45:50.707Z,5.68
2019-05-14T19:48:18.911Z,5.70
2019-05-14T19:51:01.254Z,5.70
2019-05-14T19:53:28.516Z,5.69
2019-05-14T19:55:55.519Z,5.72
2019-05-14T19:58:22.639Z,5.72
2019-05-14T20:00:49.739Z,5.68
2019-05-14T20:03:18.714Z,5.64
2019-05-14T20:05:52.282Z,5.68
2019-05-14T20:08:19.441Z,5.76
2019-05-14T20:10:48.784Z,5.79
2019-05-14T20:13:25.385Z,5.77
2019-05-14T20:15:52.603Z,5.76
2019-05-14T20:18:19.762Z,5.79
2019-05-14T20:20:49.074Z,5.76
2019-05-14T20:23:22.572Z,5.78
2019-05-14T20:25:49.719Z,5.77
2019-05-14T20:28:18.950Z,5.69
2019-05-14T20:30:52.837Z,5.63
2019-05-14T20:33:19.984Z,5.62
2019-05-14T20:35:48.562Z,5.66
2019-05-14T20:38:22.356Z,5.63
2019-05-14T20:40:49.477Z,5.64
2019-05-14T20:43:18.476Z,5.58
2019-05-14T20:45:52.386Z,5.56
2019-05-14T20:48:19.514Z,5.57
2019-05-14T20:50:46.593Z,5.62
2019-05-14T20:53:13.650Z,5.65
2019-05-14T20:55:40.776Z,5.71
2019-05-14T20:58:08.082Z,5.75
2019-05-14T21:00:35.321Z,5.77
2019-05-14T21:03:02.456Z,5.77
2019-05-14T21:05:29.598Z,5.77
2019-05-14T21:07:59.042Z,5.77
2019-05-14T21:10:31.986Z,5.79
2019-05-14T21:12:59.438Z,5.83
2019-05-14T21:15:28.531Z,5.85
2019-05-14T21:21:05.252Z,5.89
2019-05-14T21:26:12.187Z,5.93
2019-05-14T21:28:40.101Z,5.93
2019-05-14T21:31:10.181Z,5.88
2019-05-14T21:33:43.384Z,5.86
2019-05-14T21:36:12.358Z,5.80
2019-05-14T21:41:26.130Z,5.72
2019-05-14T21:43:53.875Z,5.74
2019-05-14T21:46:21.378Z,5.76
2019-05-14T21:48:48.497Z,5.75
2019-05-14T21:51:17.674Z,5.74
2019-05-14T21:53:50.885Z,5.71
2019-05-14T21:56:21.867Z,5.72
2019-05-14T22:01:58.882Z,5.75
2019-05-14T22:04:38.475Z,5.71
2019-05-14T22:09:51.421Z,5.70
2019-05-14T22:12:20.662Z,5.69
2019-05-14T22:14:53.961Z,5.68
2019-05-14T22:17:21.159Z,5.67
2019-05-14T22:19:49.423Z,5.65
2019-05-14T22:22:18.679Z,5.65
2019-05-14T22:24:52.534Z,5.67
2019-05-14T22:27:20.893Z,5.66
2019-05-14T22:29:48.311Z,5.64
2019-05-14T22:32:18.918Z,5.64
2019-05-14T22:34:51.819Z,5.69
2019-05-14T22:37:20.193Z,5.71
2019-05-14T22:39:54.680Z,5.72
2019-05-14T22:42:21.772Z,5.70
2019-05-14T22:44:50.366Z,5.72
2019-05-14T22:47:24.123Z,5.76
2019-05-14T22:49:51.240Z,5.78
2019-05-14T22:55:42.617Z,5.79
2019-05-14T22:58:24.524Z,5.85
2019-05-14T23:00:57.483Z,5.89
2019-05-14T23:03:21.221Z,5.90
2019-05-14T23:05:59.550Z,5.92
2019-05-14T23:08:27.379Z,5.92
2019-05-14T23:10:55.166Z,5.87
2019-05-14T23:13:22.517Z,5.80
2019-05-14T23:15:58.886Z,5.80
2019-05-14T23:18:38.038Z,5.77
2019-05-14T23:21:12.011Z,5.72
2019-05-14T23:23:39.462Z,5.72
2019-05-14T23:26:08.605Z,5.72
2019-05-14T23:28:49.018Z,5.70
2019-05-14T23:31:22.022Z,5.64
2019-05-14T23:33:49.347Z,5.58
2019-05-14T23:36:18.274Z,5.59
2019-05-14T23:38:52.528Z,5.60
2019-05-14T23:41:19.893Z,5.58
2019-05-14T23:43:47.440Z,5.57
2019-05-14T23:46:14.775Z,5.56
2019-05-14T23:48:42.273Z,5.53
2019-05-14T23:51:09.549Z,5.56
2019-05-14T23:53:39.074Z,5.61
2019-05-14T23:56:16.200Z,5.65
2019-05-14T23:58:54.784Z,5.63
